CYWG/YWG METAR and TAF weather

Enter ICAO airport designator
Station Type Date Time Source
CYWG METAR 2018/10/21 03:00 UTC NOAA

CYWG 210300Z 16010KT 15SM BKN150 00/M06 A3017 RMK AC6 PRESFR SLP230


Station Type Date Time Source
CYWG Decoded METAR 2018/10/21 03:00 UTC NOAA

Winnipeg Int. Airportman., Canada (CYWG) 49-54N 097-14W 239M
Oct 20, 2018 - 11:00 PM EDT / 2018.10.21 0300 UTC
Wind: from the SSE (160 degrees) at 12 MPH (10 KT):0
Visibility: 15 mile(s):0
Sky conditions: mostly cloudy
Temperature: 32 F (0 C)
Windchill: 23 F (-5 C):1
Dew Point: 21 F (-6 C)
Relative Humidity: 63%
Pressure (altimeter): 30.17 in. Hg (1021 hPa)
Pressure tendency: falling rapidly
ob: CYWG 210300Z 16010KT 15SM BKN150 00/M06 A3017 RMK AC6 PRESFR SLP230
cycle: 3

Station Type Date Time Source
CYWG TAF 2018/10/20 18:40 UTC NOAA

TAF CYWG 201738Z 2018/2118 33012KT P6SM SCT030 SCT250
TEMPO 2018/2020 P6SM -SHRASN SCT020 BKN030 BKN250
BECMG 2018/2020 28008KT
FM202000 28008KT P6SM SCT040 BKN120
FM210000 22006KT P6SM BKN110 BKN220
BECMG 2101/2103 18008KT
FM211200 22008KT P6SM SCT220
BECMG 2113/2115 29008KT
RMK NXT FCST BY 210000Z


Example: see airport list